sensor_id;sensor_type;location;lat;lon;timestamp;P1;durP1;ratioP1;P2;durP2;ratioP2
51907;SDS011;39320;53.214;6.556;2023-09-19T00:00:37;2.53;;;1.10;;
51907;SDS011;39320;53.214;6.556;2023-09-19T00:03:06;2.63;;;0.90;;
51907;SDS011;39320;53.214;6.556;2023-09-19T00:05:36;3.67;;;1.15;;
51907;SDS011;39320;53.214;6.556;2023-09-19T00:08:08;2.50;;;0.95;;
51907;SDS011;39320;53.214;6.556;2023-09-19T00:10:34;3.10;;;1.00;;
51907;SDS011;39320;53.214;6.556;2023-09-19T00:13:00;2.28;;;1.10;;
51907;SDS011;39320;53.214;6.556;2023-09-19T00:15:36;3.15;;;1.45;;
51907;SDS011;39320;53.214;6.556;2023-09-19T00:18:05;3.85;;;1.00;;
51907;SDS011;39320;53.214;6.556;2023-09-19T00:20:31;2.35;;;1.10;;
51907;SDS011;39320;53.214;6.556;2023-09-19T00:23:00;2.25;;;1.02;;
51907;SDS011;39320;53.214;6.556;2023-09-19T00:25:33;2.55;;;0.90;;
51907;SDS011;39320;53.214;6.556;2023-09-19T00:28:06;2.70;;;0.90;;
51907;SDS011;39320;53.214;6.556;2023-09-19T00:30:33;3.97;;;1.08;;
51907;SDS011;39320;53.214;6.556;2023-09-19T00:32:59;2.78;;;1.05;;
51907;SDS011;39320;53.214;6.556;2023-09-19T00:35:26;2.60;;;1.00;;
51907;SDS011;39320;53.214;6.556;2023-09-19T00:37:52;2.90;;;1.27;;
51907;SDS011;39320;53.214;6.556;2023-09-19T00:40:18;3.65;;;1.25;;
51907;SDS011;39320;53.214;6.556;2023-09-19T00:42:46;3.90;;;1.10;;
51907;SDS011;39320;53.214;6.556;2023-09-19T00:45:14;2.38;;;1.08;;
51907;SDS011;39320;53.214;6.556;2023-09-19T00:47:45;2.95;;;1.25;;
51907;SDS011;39320;53.214;6.556;2023-09-19T00:50:15;3.05;;;1.25;;
51907;SDS011;39320;53.214;6.556;2023-09-19T00:52:46;3.70;;;1.00;;
51907;SDS011;39320;53.214;6.556;2023-09-19T00:55:15;2.40;;;1.15;;
51907;SDS011;39320;53.214;6.556;2023-09-19T00:57:42;3.05;;;1.35;;
51907;SDS011;39320;53.214;6.556;2023-09-19T01:00:09;2.03;;;1.15;;
51907;SDS011;39320;53.214;6.556;2023-09-19T01:02:40;2.85;;;1.10;;
51907;SDS011;39320;53.214;6.556;2023-09-19T01:05:10;3.20;;;1.15;;
51907;SDS011;39320;53.214;6.556;2023-09-19T01:07:37;3.70;;;1.05;;
51907;SDS011;39320;53.214;6.556;2023-09-19T01:10:06;1.98;;;0.90;;
51907;SDS011;39320;53.214;6.556;2023-09-19T01:17:49;3.72;;;1.20;;
51907;SDS011;39320;53.214;6.556;2023-09-19T01:29:01;2.03;;;0.90;;
51907;SDS011;39320;53.214;6.556;2023-09-19T01:31:54;2.33;;;1.00;;
51907;SDS011;39320;53.214;6.556;2023-09-19T01:34:26;1.70;;;1.08;;
51907;SDS011;39320;53.214;6.556;2023-09-19T01:36:52;2.38;;;0.90;;
51907;SDS011;39320;53.214;6.556;2023-09-19T01:39:17;2.28;;;1.00;;
51907;SDS011;39320;53.214;6.556;2023-09-19T01:44:11;2.35;;;1.20;;
51907;SDS011;39320;53.214;6.556;2023-09-19T01:46:47;2.03;;;1.10;;
51907;SDS011;39320;53.214;6.556;2023-09-19T01:49:27;2.75;;;1.10;;
51907;SDS011;39320;53.214;6.556;2023-09-19T01:52:06;2.92;;;0.93;;
51907;SDS011;39320;53.214;6.556;2023-09-19T01:54:54;1.55;;;1.15;;
51907;SDS011;39320;53.214;6.556;2023-09-19T01:57:28;3.50;;;1.27;;
51907;SDS011;39320;53.214;6.556;2023-09-19T02:00:15;4.38;;;1.30;;
51907;SDS011;39320;53.214;6.556;2023-09-19T02:02:47;3.33;;;1.30;;
51907;SDS011;39320;53.214;6.556;2023-09-19T02:05:13;2.35;;;1.40;;
51907;SDS011;39320;53.214;6.556;2023-09-19T02:07:53;1.63;;;1.00;;
51907;SDS011;39320;53.214;6.556;2023-09-19T02:10:20;2.85;;;1.13;;
51907;SDS011;39320;53.214;6.556;2023-09-19T02:12:47;5.40;;;1.23;;
51907;SDS011;39320;53.214;6.556;2023-09-19T02:15:13;2.03;;;1.25;;
51907;SDS011;39320;53.214;6.556;2023-09-19T02:17:41;2.72;;;1.40;;
51907;SDS011;39320;53.214;6.556;2023-09-19T02:20:08;3.55;;;1.17;;
51907;SDS011;39320;53.214;6.556;2023-09-19T02:22:35;2.28;;;1.05;;
51907;SDS011;39320;53.214;6.556;2023-09-19T02:25:02;3.10;;;1.05;;
51907;SDS011;39320;53.214;6.556;2023-09-19T02:27:30;2.75;;;1.00;;
51907;SDS011;39320;53.214;6.556;2023-09-19T02:29:56;2.75;;;1.23;;
51907;SDS011;39320;53.214;6.556;2023-09-19T02:32:22;1.83;;;1.17;;
51907;SDS011;39320;53.214;6.556;2023-09-19T02:34:48;2.83;;;1.13;;
51907;SDS011;39320;53.214;6.556;2023-09-19T02:37:17;2.22;;;1.02;;
51907;SDS011;39320;53.214;6.556;2023-09-19T02:39:44;4.57;;;1.17;;
51907;SDS011;39320;53.214;6.556;2023-09-19T02:42:09;2.75;;;0.98;;
51907;SDS011;39320;53.214;6.556;2023-09-19T02:44:35;2.05;;;1.10;;
51907;SDS011;39320;53.214;6.556;2023-09-19T02:47:01;2.50;;;1.30;;
51907;SDS011;39320;53.214;6.556;2023-09-19T02:49:27;4.35;;;1.33;;
51907;SDS011;39320;53.214;6.556;2023-09-19T02:51:53;1.67;;;0.90;;
51907;SDS011;39320;53.214;6.556;2023-09-19T02:54:19;3.42;;;1.17;;
51907;SDS011;39320;53.214;6.556;2023-09-19T02:56:45;2.80;;;1.15;;
51907;SDS011;39320;53.214;6.556;2023-09-19T02:59:12;2.17;;;0.98;;
51907;SDS011;39320;53.214;6.556;2023-09-19T03:01:38;2.65;;;1.15;;
51907;SDS011;39320;53.214;6.556;2023-09-19T03:04:04;3.20;;;1.15;;
51907;SDS011;39320;53.214;6.556;2023-09-19T03:06:31;1.85;;;0.90;;
51907;SDS011;39320;53.214;6.556;2023-09-19T03:08:57;2.97;;;1.27;;
51907;SDS011;39320;53.214;6.556;2023-09-19T03:11:25;1.95;;;1.05;;
51907;SDS011;39320;53.214;6.556;2023-09-19T03:13:54;3.38;;;1.20;;
51907;SDS011;39320;53.214;6.556;2023-09-19T03:16:20;6.25;;;1.13;;
51907;SDS011;39320;53.214;6.556;2023-09-19T03:18:50;1.80;;;1.30;;
51907;SDS011;39320;53.214;6.556;2023-09-19T03:21:16;3.22;;;0.93;;
51907;SDS011;39320;53.214;6.556;2023-09-19T03:23:43;4.47;;;1.38;;
51907;SDS011;39320;53.214;6.556;2023-09-19T03:26:12;2.50;;;0.93;;
51907;SDS011;39320;53.214;6.556;2023-09-19T03:28:40;1.58;;;1.00;;
51907;SDS011;39320;53.214;6.556;2023-09-19T03:31:07;1.95;;;0.80;;
51907;SDS011;39320;53.214;6.556;2023-09-19T03:33:33;5.68;;;1.05;;
51907;SDS011;39320;53.214;6.556;2023-09-19T03:36:00;2.60;;;1.30;;
51907;SDS011;39320;53.214;6.556;2023-09-19T03:38:29;2.42;;;0.90;;
51907;SDS011;39320;53.214;6.556;2023-09-19T03:40:55;2.88;;;1.38;;
51907;SDS011;39320;53.214;6.556;2023-09-19T03:43:21;2.40;;;1.13;;
51907;SDS011;39320;53.214;6.556;2023-09-19T03:45:47;2.13;;;0.80;;
51907;SDS011;39320;53.214;6.556;2023-09-19T03:48:14;4.82;;;1.13;;
51907;SDS011;39320;53.214;6.556;2023-09-19T03:50:39;3.20;;;1.20;;
51907;SDS011;39320;53.214;6.556;2023-09-19T03:53:05;3.47;;;1.20;;
51907;SDS011;39320;53.214;6.556;2023-09-19T03:55:34;4.03;;;1.48;;
51907;SDS011;39320;53.214;6.556;2023-09-19T03:58:06;1.88;;;1.20;;
51907;SDS011;39320;53.214;6.556;2023-09-19T04:00:32;2.85;;;0.90;;
51907;SDS011;39320;53.214;6.556;2023-09-19T04:02:59;4.22;;;1.38;;
51907;SDS011;39320;53.214;6.556;2023-09-19T04:05:27;2.10;;;0.98;;
51907;SDS011;39320;53.214;6.556;2023-09-19T04:07:53;3.72;;;1.30;;
51907;SDS011;39320;53.214;6.556;2023-09-19T04:10:18;2.85;;;1.40;;
51907;SDS011;39320;53.214;6.556;2023-09-19T04:12:51;2.38;;;1.13;;
51907;SDS011;39320;53.214;6.556;2023-09-19T04:15:18;3.08;;;1.35;;
51907;SDS011;39320;53.214;6.556;2023-09-19T04:17:44;3.22;;;1.00;;
51907;SDS011;39320;53.214;6.556;2023-09-19T04:20:10;2.78;;;1.33;;
51907;SDS011;39320;53.214;6.556;2023-09-19T04:22:37;3.30;;;1.20;;
51907;SDS011;39320;53.214;6.556;2023-09-19T04:25:04;3.60;;;1.30;;
51907;SDS011;39320;53.214;6.556;2023-09-19T04:27:33;2.17;;;0.90;;
51907;SDS011;39320;53.214;6.556;2023-09-19T04:29:59;1.88;;;0.90;;
51907;SDS011;39320;53.214;6.556;2023-09-19T04:32:28;2.08;;;1.10;;
51907;SDS011;39320;53.214;6.556;2023-09-19T04:34:54;3.25;;;1.10;;
51907;SDS011;39320;53.214;6.556;2023-09-19T04:37:24;1.58;;;1.10;;
51907;SDS011;39320;53.214;6.556;2023-09-19T04:39:51;2.45;;;1.10;;
51907;SDS011;39320;53.214;6.556;2023-09-19T04:42:16;3.65;;;1.27;;
51907;SDS011;39320;53.214;6.556;2023-09-19T04:44:42;2.17;;;1.02;;
51907;SDS011;39320;53.214;6.556;2023-09-19T04:47:08;2.85;;;1.17;;
51907;SDS011;39320;53.214;6.556;2023-09-19T04:49:34;3.38;;;1.10;;
51907;SDS011;39320;53.214;6.556;2023-09-19T04:52:00;2.25;;;0.90;;
51907;SDS011;39320;53.214;6.556;2023-09-19T04:54:26;3.38;;;1.20;;
51907;SDS011;39320;53.214;6.556;2023-09-19T04:56:52;3.40;;;1.27;;
51907;SDS011;39320;53.214;6.556;2023-09-19T04:59:18;2.50;;;1.08;;
51907;SDS011;39320;53.214;6.556;2023-09-19T05:01:43;2.80;;;1.20;;
51907;SDS011;39320;53.214;6.556;2023-09-19T05:04:09;3.60;;;1.10;;
51907;SDS011;39320;53.214;6.556;2023-09-19T05:06:35;1.98;;;1.02;;
51907;SDS011;39320;53.214;6.556;2023-09-19T05:09:00;3.20;;;1.20;;
51907;SDS011;39320;53.214;6.556;2023-09-19T05:11:27;3.35;;;1.42;;
51907;SDS011;39320;53.214;6.556;2023-09-19T05:13:55;1.75;;;1.00;;
51907;SDS011;39320;53.214;6.556;2023-09-19T05:16:21;1.90;;;1.10;;
51907;SDS011;39320;53.214;6.556;2023-09-19T05:18:47;5.50;;;1.38;;
51907;SDS011;39320;53.214;6.556;2023-09-19T05:21:12;2.97;;;1.40;;
51907;SDS011;39320;53.214;6.556;2023-09-19T05:23:38;2.17;;;1.02;;
51907;SDS011;39320;53.214;6.556;2023-09-19T05:26:04;4.80;;;1.55;;
51907;SDS011;39320;53.214;6.556;2023-09-19T05:28:30;3.63;;;1.17;;
51907;SDS011;39320;53.214;6.556;2023-09-19T05:30:57;2.67;;;1.02;;
51907;SDS011;39320;53.214;6.556;2023-09-19T05:33:27;2.80;;;1.20;;
51907;SDS011;39320;53.214;6.556;2023-09-19T05:35:53;2.92;;;1.20;;
51907;SDS011;39320;53.214;6.556;2023-09-19T05:38:19;2.78;;;1.13;;
51907;SDS011;39320;53.214;6.556;2023-09-19T05:40:45;2.10;;;1.20;;
51907;SDS011;39320;53.214;6.556;2023-09-19T05:43:11;2.78;;;1.00;;
51907;SDS011;39320;53.214;6.556;2023-09-19T05:45:39;3.03;;;1.67;;
51907;SDS011;39320;53.214;6.556;2023-09-19T05:48:12;3.45;;;1.27;;
51907;SDS011;39320;53.214;6.556;2023-09-19T05:50:39;3.00;;;1.13;;
51907;SDS011;39320;53.214;6.556;2023-09-19T05:53:05;2.17;;;1.13;;
51907;SDS011;39320;53.214;6.556;2023-09-19T05:55:31;3.25;;;1.25;;
51907;SDS011;39320;53.214;6.556;2023-09-19T05:57:57;1.77;;;1.17;;
51907;SDS011;39320;53.214;6.556;2023-09-19T06:00:24;3.08;;;1.30;;
51907;SDS011;39320;53.214;6.556;2023-09-19T06:02:55;3.15;;;2.20;;
51907;SDS011;39320;53.214;6.556;2023-09-19T06:05:22;3.50;;;1.70;;
51907;SDS011;39320;53.214;6.556;2023-09-19T06:07:52;3.25;;;1.13;;
51907;SDS011;39320;53.214;6.556;2023-09-19T06:10:18;2.72;;;1.33;;
51907;SDS011;39320;53.214;6.556;2023-09-19T06:12:46;3.78;;;1.05;;
51907;SDS011;39320;53.214;6.556;2023-09-19T06:15:15;2.83;;;1.20;;
51907;SDS011;39320;53.214;6.556;2023-09-19T06:17:50;3.40;;;1.00;;
51907;SDS011;39320;53.214;6.556;2023-09-19T06:20:20;2.58;;;1.25;;
51907;SDS011;39320;53.214;6.556;2023-09-19T06:22:48;3.40;;;1.30;;
51907;SDS011;39320;53.214;6.556;2023-09-19T06:25:14;4.28;;;1.40;;
51907;SDS011;39320;53.214;6.556;2023-09-19T06:27:48;3.05;;;1.83;;
51907;SDS011;39320;53.214;6.556;2023-09-19T06:30:17;4.13;;;1.50;;
51907;SDS011;39320;53.214;6.556;2023-09-19T06:32:43;3.72;;;1.30;;
51907;SDS011;39320;53.214;6.556;2023-09-19T06:35:10;3.15;;;1.20;;
51907;SDS011;39320;53.214;6.556;2023-09-19T06:37:37;5.13;;;1.42;;
51907;SDS011;39320;53.214;6.556;2023-09-19T06:40:12;5.57;;;1.30;;
51907;SDS011;39320;53.214;6.556;2023-09-19T06:42:43;2.97;;;1.58;;
51907;SDS011;39320;53.214;6.556;2023-09-19T06:45:11;4.28;;;1.38;;
51907;SDS011;39320;53.214;6.556;2023-09-19T06:47:38;3.85;;;1.77;;
51907;SDS011;39320;53.214;6.556;2023-09-19T06:50:05;3.28;;;1.55;;
51907;SDS011;39320;53.214;6.556;2023-09-19T06:52:37;5.50;;;1.95;;
51907;SDS011;39320;53.214;6.556;2023-09-19T06:55:03;6.65;;;1.42;;
51907;SDS011;39320;53.214;6.556;2023-09-19T06:57:30;4.05;;;1.40;;
51907;SDS011;39320;53.214;6.556;2023-09-19T06:59:56;2.42;;;1.40;;
51907;SDS011;39320;53.214;6.556;2023-09-19T07:02:22;4.93;;;1.73;;
51907;SDS011;39320;53.214;6.556;2023-09-19T07:04:48;3.67;;;1.73;;
51907;SDS011;39320;53.214;6.556;2023-09-19T07:07:15;4.38;;;1.45;;
51907;SDS011;39320;53.214;6.556;2023-09-19T07:09:41;3.45;;;1.40;;
51907;SDS011;39320;53.214;6.556;2023-09-19T07:12:07;3.05;;;1.30;;
51907;SDS011;39320;53.214;6.556;2023-09-19T07:14:33;4.65;;;1.27;;
51907;SDS011;39320;53.214;6.556;2023-09-19T07:16:59;2.30;;;1.30;;
51907;SDS011;39320;53.214;6.556;2023-09-19T07:19:28;3.85;;;1.45;;
51907;SDS011;39320;53.214;6.556;2023-09-19T07:21:56;3.08;;;1.20;;
51907;SDS011;39320;53.214;6.556;2023-09-19T07:24:24;2.97;;;1.23;;
51907;SDS011;39320;53.214;6.556;2023-09-19T07:26:51;4.30;;;1.15;;
51907;SDS011;39320;53.214;6.556;2023-09-19T07:29:17;3.42;;;1.65;;
51907;SDS011;39320;53.214;6.556;2023-09-19T07:31:43;3.22;;;1.27;;
51907;SDS011;39320;53.214;6.556;2023-09-19T07:34:09;3.95;;;1.40;;
51907;SDS011;39320;53.214;6.556;2023-09-19T07:36:35;4.03;;;1.42;;
51907;SDS011;39320;53.214;6.556;2023-09-19T07:39:03;3.03;;;1.33;;
51907;SDS011;39320;53.214;6.556;2023-09-19T07:41:32;3.25;;;1.15;;
51907;SDS011;39320;53.214;6.556;2023-09-19T07:43:59;2.72;;;1.27;;
51907;SDS011;39320;53.214;6.556;2023-09-19T07:46:25;3.78;;;1.55;;
51907;SDS011;39320;53.214;6.556;2023-09-19T07:48:51;2.13;;;1.25;;
51907;SDS011;39320;53.214;6.556;2023-09-19T07:51:17;5.03;;;2.00;;
51907;SDS011;39320;53.214;6.556;2023-09-19T07:53:43;4.07;;;1.60;;
51907;SDS011;39320;53.214;6.556;2023-09-19T07:56:09;4.78;;;1.90;;
51907;SDS011;39320;53.214;6.556;2023-09-19T07:58:35;2.97;;;1.50;;
51907;SDS011;39320;53.214;6.556;2023-09-19T08:01:09;3.70;;;1.50;;
51907;SDS011;39320;53.214;6.556;2023-09-19T08:03:35;3.65;;;1.23;;
51907;SDS011;39320;53.214;6.556;2023-09-19T08:06:09;4.93;;;1.20;;
51907;SDS011;39320;53.214;6.556;2023-09-19T08:08:35;2.92;;;1.40;;
51907;SDS011;39320;53.214;6.556;2023-09-19T08:11:05;3.22;;;1.50;;
51907;SDS011;39320;53.214;6.556;2023-09-19T08:13:42;3.83;;;1.55;;
51907;SDS011;39320;53.214;6.556;2023-09-19T08:16:14;3.30;;;1.50;;
51907;SDS011;39320;53.214;6.556;2023-09-19T08:18:40;3.55;;;1.65;;
51907;SDS011;39320;53.214;6.556;2023-09-19T08:21:07;2.88;;;1.73;;
51907;SDS011;39320;53.214;6.556;2023-09-19T08:23:35;4.75;;;1.60;;
51907;SDS011;39320;53.214;6.556;2023-09-19T08:26:07;3.08;;;1.30;;
51907;SDS011;39320;53.214;6.556;2023-09-19T08:28:36;4.28;;;1.42;;
51907;SDS011;39320;53.214;6.556;2023-09-19T08:31:06;3.53;;;1.67;;
51907;SDS011;39320;53.214;6.556;2023-09-19T08:33:36;3.40;;;1.63;;
51907;SDS011;39320;53.214;6.556;2023-09-19T08:36:02;3.08;;;1.30;;
51907;SDS011;39320;53.214;6.556;2023-09-19T08:38:30;4.25;;;1.27;;
51907;SDS011;39320;53.214;6.556;2023-09-19T08:41:00;3.75;;;1.60;;
51907;SDS011;39320;53.214;6.556;2023-09-19T08:43:30;2.65;;;1.42;;
51907;SDS011;39320;53.214;6.556;2023-09-19T08:48:31;2.75;;;1.45;;
51907;SDS011;39320;53.214;6.556;2023-09-19T08:56:29;3.03;;;1.30;;
51907;SDS011;39320;53.214;6.556;2023-09-19T08:59:04;2.17;;;1.50;;
51907;SDS011;39320;53.214;6.556;2023-09-19T09:01:34;3.70;;;1.30;;
51907;SDS011;39320;53.214;6.556;2023-09-19T09:04:01;2.65;;;1.38;;
51907;SDS011;39320;53.214;6.556;2023-09-19T09:06:27;3.17;;;1.27;;
51907;SDS011;39320;53.214;6.556;2023-09-19T09:08:55;3.55;;;1.70;;
51907;SDS011;39320;53.214;6.556;2023-09-19T09:11:21;4.53;;;1.50;;
51907;SDS011;39320;53.214;6.556;2023-09-19T09:13:50;2.47;;;1.67;;
51907;SDS011;39320;53.214;6.556;2023-09-19T09:16:16;3.30;;;1.60;;
51907;SDS011;39320;53.214;6.556;2023-09-19T09:18:45;3.33;;;1.60;;
51907;SDS011;39320;53.214;6.556;2023-09-19T09:21:12;5.53;;;2.42;;
51907;SDS011;39320;53.214;6.556;2023-09-19T09:23:39;3.15;;;1.70;;
51907;SDS011;39320;53.214;6.556;2023-09-19T09:26:05;3.22;;;1.55;;
51907;SDS011;39320;53.214;6.556;2023-09-19T09:28:33;3.50;;;1.65;;
51907;SDS011;39320;53.214;6.556;2023-09-19T09:31:01;5.85;;;1.70;;
51907;SDS011;39320;53.214;6.556;2023-09-19T09:33:30;3.33;;;1.80;;
51907;SDS011;39320;53.214;6.556;2023-09-19T09:35:57;5.43;;;1.85;;
51907;SDS011;39320;53.214;6.556;2023-09-19T09:38:26;4.60;;;1.90;;
51907;SDS011;39320;53.214;6.556;2023-09-19T09:40:57;4.97;;;2.30;;
51907;SDS011;39320;53.214;6.556;2023-09-19T09:43:38;5.72;;;2.22;;
51907;SDS011;39320;53.214;6.556;2023-09-19T09:46:11;5.05;;;2.05;;
51907;SDS011;39320;53.214;6.556;2023-09-19T09:48:49;4.97;;;2.33;;
51907;SDS011;39320;53.214;6.556;2023-09-19T09:51:48;3.58;;;1.90;;
51907;SDS011;39320;53.214;6.556;2023-09-19T09:54:26;5.43;;;1.70;;
51907;SDS011;39320;53.214;6.556;2023-09-19T09:57:00;4.75;;;1.80;;
51907;SDS011;39320;53.214;6.556;2023-09-19T09:59:45;4.95;;;2.10;;
51907;SDS011;39320;53.214;6.556;2023-09-19T10:02:30;6.15;;;1.90;;
51907;SDS011;39320;53.214;6.556;2023-09-19T10:05:20;4.45;;;2.00;;
51907;SDS011;39320;53.214;6.556;2023-09-19T10:07:55;6.57;;;1.90;;
51907;SDS011;39320;53.214;6.556;2023-09-19T10:10:29;4.10;;;1.67;;
51907;SDS011;39320;53.214;6.556;2023-09-19T10:13:11;4.78;;;1.60;;
51907;SDS011;39320;53.214;6.556;2023-09-19T10:15:49;4.53;;;1.95;;
51907;SDS011;39320;53.214;6.556;2023-09-19T10:18:20;4.93;;;2.17;;
51907;SDS011;39320;53.214;6.556;2023-09-19T10:20:50;4.47;;;1.85;;
51907;SDS011;39320;53.214;6.556;2023-09-19T10:23:17;4.88;;;1.90;;
51907;SDS011;39320;53.214;6.556;2023-09-19T10:25:52;3.83;;;2.08;;
51907;SDS011;39320;53.214;6.556;2023-09-19T10:28:19;5.03;;;2.05;;
51907;SDS011;39320;53.214;6.556;2023-09-19T10:30:51;3.28;;;2.20;;
51907;SDS011;39320;53.214;6.556;2023-09-19T10:33:18;3.33;;;1.88;;
51907;SDS011;39320;53.214;6.556;2023-09-19T10:35:51;4.38;;;1.90;;
51907;SDS011;39320;53.214;6.556;2023-09-19T10:38:22;7.10;;;2.63;;
51907;SDS011;39320;53.214;6.556;2023-09-19T10:40:53;5.50;;;1.73;;
51907;SDS011;39320;53.214;6.556;2023-09-19T10:43:20;4.07;;;1.52;;
51907;SDS011;39320;53.214;6.556;2023-09-19T10:45:50;4.90;;;1.58;;
51907;SDS011;39320;53.214;6.556;2023-09-19T10:48:18;4.25;;;1.75;;
51907;SDS011;39320;53.214;6.556;2023-09-19T10:53:14;3.60;;;1.95;;
51907;SDS011;39320;53.214;6.556;2023-09-19T10:55:42;3.75;;;1.65;;
51907;SDS011;39320;53.214;6.556;2023-09-19T10:58:25;4.70;;;2.50;;
51907;SDS011;39320;53.214;6.556;2023-09-19T11:00:54;6.18;;;1.90;;
51907;SDS011;39320;53.214;6.556;2023-09-19T11:03:22;6.72;;;1.60;;
51907;SDS011;39320;53.214;6.556;2023-09-19T11:06:12;3.75;;;1.50;;
51907;SDS011;39320;53.214;6.556;2023-09-19T11:11:38;5.63;;;1.85;;
51907;SDS011;39320;53.214;6.556;2023-09-19T11:14:14;3.00;;;1.38;;
51907;SDS011;39320;53.214;6.556;2023-09-19T11:16:48;3.47;;;1.38;;
51907;SDS011;39320;53.214;6.556;2023-09-19T11:30:34;4.53;;;1.80;;
51907;SDS011;39320;53.214;6.556;2023-09-19T11:36:07;4.82;;;1.90;;
51907;SDS011;39320;53.214;6.556;2023-09-19T11:46:29;4.35;;;1.85;;
51907;SDS011;39320;53.214;6.556;2023-09-19T11:49:04;4.30;;;1.85;;
51907;SDS011;39320;53.214;6.556;2023-09-19T11:51:41;5.38;;;1.95;;
51907;SDS011;39320;53.214;6.556;2023-09-19T11:54:12;4.50;;;1.80;;
51907;SDS011;39320;53.214;6.556;2023-09-19T11:56:50;3.72;;;1.52;;
51907;SDS011;39320;53.214;6.556;2023-09-19T11:59:28;5.13;;;1.67;;
51907;SDS011;39320;53.214;6.556;2023-09-19T12:01:56;2.95;;;1.30;;
51907;SDS011;39320;53.214;6.556;2023-09-19T12:04:33;5.55;;;1.58;;
51907;SDS011;39320;53.214;6.556;2023-09-19T12:07:11;4.63;;;1.80;;
51907;SDS011;39320;53.214;6.556;2023-09-19T12:09:41;2.33;;;1.35;;
51907;SDS011;39320;53.214;6.556;2023-09-19T12:12:22;3.70;;;1.40;;
51907;SDS011;39320;53.214;6.556;2023-09-19T12:14:52;4.88;;;1.63;;
51907;SDS011;39320;53.214;6.556;2023-09-19T12:17:18;3.35;;;1.38;;
51907;SDS011;39320;53.214;6.556;2023-09-19T12:19:53;4.88;;;2.03;;
51907;SDS011;39320;53.214;6.556;2023-09-19T12:22:20;8.38;;;1.70;;
51907;SDS011;39320;53.214;6.556;2023-09-19T12:24:46;5.43;;;2.30;;
51907;SDS011;39320;53.214;6.556;2023-09-19T12:27:13;4.65;;;1.77;;
51907;SDS011;39320;53.214;6.556;2023-09-19T12:29:43;2.60;;;1.70;;
51907;SDS011;39320;53.214;6.556;2023-09-19T12:32:10;4.68;;;1.95;;
51907;SDS011;39320;53.214;6.556;2023-09-19T12:34:36;3.17;;;1.50;;
51907;SDS011;39320;53.214;6.556;2023-09-19T12:39:53;3.45;;;1.42;;
51907;SDS011;39320;53.214;6.556;2023-09-19T12:42:39;4.10;;;1.50;;
51907;SDS011;39320;53.214;6.556;2023-09-19T12:45:06;4.05;;;1.48;;
51907;SDS011;39320;53.214;6.556;2023-09-19T12:47:34;2.88;;;1.50;;
51907;SDS011;39320;53.214;6.556;2023-09-19T12:50:10;2.20;;;1.17;;
51907;SDS011;39320;53.214;6.556;2023-09-19T12:52:44;5.63;;;1.50;;
51907;SDS011;39320;53.214;6.556;2023-09-19T12:55:21;3.35;;;1.38;;
51907;SDS011;39320;53.214;6.556;2023-09-19T13:05:48;4.10;;;1.63;;
51907;SDS011;39320;53.214;6.556;2023-09-19T13:08:25;2.92;;;1.15;;
51907;SDS011;39320;53.214;6.556;2023-09-19T13:16:10;3.53;;;1.45;;
51907;SDS011;39320;53.214;6.556;2023-09-19T13:18:49;3.63;;;1.35;;
51907;SDS011;39320;53.214;6.556;2023-09-19T13:21:26;2.25;;;1.10;;
51907;SDS011;39320;53.214;6.556;2023-09-19T13:23:55;5.93;;;1.23;;
51907;SDS011;39320;53.214;6.556;2023-09-19T13:26:25;2.42;;;1.15;;
51907;SDS011;39320;53.214;6.556;2023-09-19T13:28:51;3.00;;;1.08;;
51907;SDS011;39320;53.214;6.556;2023-09-19T13:31:17;3.20;;;1.35;;
51907;SDS011;39320;53.214;6.556;2023-09-19T13:33:44;3.08;;;0.95;;
51907;SDS011;39320;53.214;6.556;2023-09-19T13:36:11;4.03;;;1.10;;
51907;SDS011;39320;53.214;6.556;2023-09-19T13:38:38;3.85;;;1.23;;
51907;SDS011;39320;53.214;6.556;2023-09-19T13:41:10;2.50;;;1.20;;
51907;SDS011;39320;53.214;6.556;2023-09-19T13:43:39;4.13;;;1.67;;
51907;SDS011;39320;53.214;6.556;2023-09-19T13:46:05;2.53;;;0.80;;
51907;SDS011;39320;53.214;6.556;2023-09-19T13:48:37;3.08;;;1.13;;
51907;SDS011;39320;53.214;6.556;2023-09-19T13:51:03;3.83;;;1.20;;
51907;SDS011;39320;53.214;6.556;2023-09-19T13:53:29;1.92;;;0.90;;
51907;SDS011;39320;53.214;6.556;2023-09-19T13:55:55;3.65;;;1.15;;
51907;SDS011;39320;53.214;6.556;2023-09-19T13:58:21;2.25;;;0.80;;
51907;SDS011;39320;53.214;6.556;2023-09-19T14:00:48;2.08;;;1.10;;
51907;SDS011;39320;53.214;6.556;2023-09-19T14:03:14;1.50;;;0.82;;
51907;SDS011;39320;53.214;6.556;2023-09-19T14:05:40;1.42;;;0.85;;
51907;SDS011;39320;53.214;6.556;2023-09-19T14:08:07;3.75;;;0.98;;
51907;SDS011;39320;53.214;6.556;2023-09-19T14:10:33;2.15;;;1.20;;
51907;SDS011;39320;53.214;6.556;2023-09-19T14:13:00;1.27;;;0.82;;
51907;SDS011;39320;53.214;6.556;2023-09-19T14:15:26;3.15;;;1.08;;
51907;SDS011;39320;53.214;6.556;2023-09-19T14:17:58;3.53;;;1.05;;
51907;SDS011;39320;53.214;6.556;2023-09-19T14:20:25;3.40;;;1.05;;
51907;SDS011;39320;53.214;6.556;2023-09-19T14:22:54;3.50;;;0.88;;
51907;SDS011;39320;53.214;6.556;2023-09-19T14:25:20;3.40;;;1.00;;
51907;SDS011;39320;53.214;6.556;2023-09-19T14:27:46;2.13;;;1.00;;
51907;SDS011;39320;53.214;6.556;2023-09-19T14:30:13;1.42;;;0.80;;
51907;SDS011;39320;53.214;6.556;2023-09-19T14:32:39;2.55;;;0.85;;
51907;SDS011;39320;53.214;6.556;2023-09-19T14:35:05;2.28;;;0.90;;
51907;SDS011;39320;53.214;6.556;2023-09-19T14:37:32;2.47;;;0.90;;
51907;SDS011;39320;53.214;6.556;2023-09-19T14:39:58;2.78;;;1.00;;
51907;SDS011;39320;53.214;6.556;2023-09-19T14:42:24;2.70;;;1.00;;
51907;SDS011;39320;53.214;6.556;2023-09-19T14:44:49;2.45;;;1.02;;
51907;SDS011;39320;53.214;6.556;2023-09-19T14:47:15;2.97;;;1.17;;
51907;SDS011;39320;53.214;6.556;2023-09-19T14:49:42;2.47;;;0.80;;
51907;SDS011;39320;53.214;6.556;2023-09-19T14:52:08;1.55;;;0.88;;
51907;SDS011;39320;53.214;6.556;2023-09-19T14:54:34;2.35;;;1.05;;
51907;SDS011;39320;53.214;6.556;2023-09-19T14:57:03;2.15;;;0.90;;
51907;SDS011;39320;53.214;6.556;2023-09-19T14:59:32;3.38;;;1.10;;
51907;SDS011;39320;53.214;6.556;2023-09-19T15:02:07;2.67;;;0.98;;
51907;SDS011;39320;53.214;6.556;2023-09-19T15:04:33;1.58;;;0.65;;
51907;SDS011;39320;53.214;6.556;2023-09-19T15:06:58;3.45;;;1.17;;
51907;SDS011;39320;53.214;6.556;2023-09-19T15:09:25;2.13;;;1.05;;
51907;SDS011;39320;53.214;6.556;2023-09-19T15:11:54;2.33;;;1.00;;
51907;SDS011;39320;53.214;6.556;2023-09-19T15:14:23;3.17;;;0.93;;
51907;SDS011;39320;53.214;6.556;2023-09-19T15:16:54;3.40;;;1.00;;
51907;SDS011;39320;53.214;6.556;2023-09-19T15:19:20;1.67;;;0.90;;
51907;SDS011;39320;53.214;6.556;2023-09-19T15:21:47;2.25;;;1.05;;
51907;SDS011;39320;53.214;6.556;2023-09-19T15:24:13;1.70;;;1.00;;
51907;SDS011;39320;53.214;6.556;2023-09-19T15:26:40;1.17;;;0.70;;
51907;SDS011;39320;53.214;6.556;2023-09-19T15:29:08;2.28;;;0.98;;
51907;SDS011;39320;53.214;6.556;2023-09-19T15:31:34;2.75;;;0.90;;
51907;SDS011;39320;53.214;6.556;2023-09-19T15:34:06;2.05;;;0.80;;
51907;SDS011;39320;53.214;6.556;2023-09-19T15:36:32;2.08;;;0.90;;
51907;SDS011;39320;53.214;6.556;2023-09-19T15:39:07;2.30;;;1.00;;
51907;SDS011;39320;53.214;6.556;2023-09-19T15:41:36;2.20;;;0.82;;
51907;SDS011;39320;53.214;6.556;2023-09-19T15:44:15;2.72;;;0.80;;
51907;SDS011;39320;53.214;6.556;2023-09-19T15:46:44;1.83;;;1.10;;
51907;SDS011;39320;53.214;6.556;2023-09-19T15:49:10;2.05;;;1.00;;
51907;SDS011;39320;53.214;6.556;2023-09-19T15:51:36;2.35;;;0.90;;
51907;SDS011;39320;53.214;6.556;2023-09-19T15:54:06;2.40;;;1.30;;
51907;SDS011;39320;53.214;6.556;2023-09-19T15:56:34;3.10;;;0.90;;
51907;SDS011;39320;53.214;6.556;2023-09-19T15:59:01;3.75;;;1.10;;
51907;SDS011;39320;53.214;6.556;2023-09-19T16:01:26;1.55;;;0.80;;
51907;SDS011;39320;53.214;6.556;2023-09-19T16:03:53;1.70;;;0.75;;
51907;SDS011;39320;53.214;6.556;2023-09-19T16:06:25;4.13;;;1.00;;